»·PEaware :: N1427Y KSMX-KBFL

N1427Y :: KSMX-KBFL

FLIGHT INFORMATION

Flight Status: Arrived
Operator: Privately registered:
United States
More flights under this callsign
Pilot: Anonymous 32423 (32423)
Aircraft: Unknown
(G58)
More flights by this aircraft type
Origin: KSMX Santa Maria Pub/Capt Hancock
United States
Destination: KBFL Meadows
United States
More flights between these airports :: More routes between these airports
Route: FLW
File this flight plan on PilotEdge
Remarks:
Altitude:
(Current/Filed)
7,500ft
Speed:
(Current/Filed)
180kts
Departed: 18-Sep-21 09:17 AM
Arrived: 18-Sep-21 09:47 AM
Distance/Time
Traveled:
76nm/0:30
Distance/Time
To Go:
Arrived

Flight Plot

Page will automatically refresh every two minutes.


Map Options




Map Legend


Flown Route
Filed Route
Departure Airport
Arrival Airport
Navaid (VOR, NDB)
Fix

Horizontal Profiles

Position Reports

Time Latitude Longitude Heading Altitude Ground
Speed
18-Sep-21 08:19 34.894028 -120.443464 120 263ft 0kts
18-Sep-21 08:20 34.894028 -120.443464 120 263ft 0kts
18-Sep-21 08:21 34.894028 -120.443464 120 263ft 0kts
18-Sep-21 08:22 34.894028 -120.443464 120 263ft 0kts
18-Sep-21 08:23 34.894028 -120.443464 120 263ft 0kts
18-Sep-21 08:24 34.894025 -120.443458 116 263ft 0kts
18-Sep-21 08:25 34.894101 -120.443563 261 263ft 0kts
18-Sep-21 08:26 34.894101 -120.443563 261 263ft 0kts
18-Sep-21 08:27 34.894101 -120.443563 261 263ft 0kts
18-Sep-21 08:28 34.894101 -120.443563 261 263ft 0kts
18-Sep-21 08:29 34.894101 -120.443563 261 263ft 0kts
18-Sep-21 08:30 34.894101 -120.443563 261 263ft 0kts
18-Sep-21 08:31 34.894101 -120.443563 261 263ft 0kts
18-Sep-21 08:32 34.894101 -120.443563 261 263ft 0kts
18-Sep-21 08:33 34.894101 -120.443563 261 263ft 0kts
18-Sep-21 08:34 34.894101 -120.443563 261 263ft 0kts
18-Sep-21 08:35 34.894101 -120.443563 261 263ft 0kts
18-Sep-21 08:36 34.894101 -120.443563 261 263ft 0kts
18-Sep-21 08:37 34.894101 -120.443563 261 263ft 0kts
18-Sep-21 08:38 34.894101 -120.443563 261 263ft 0kts
18-Sep-21 08:39 34.894101 -120.443563 261 263ft 0kts
18-Sep-21 08:40 34.894101 -120.443563 261 263ft 0kts
18-Sep-21 08:41 34.894101 -120.443563 261 263ft 0kts
18-Sep-21 08:42 34.894101 -120.443563 261 263ft 0kts
18-Sep-21 08:43 34.894101 -120.443563 261 263ft 0kts
18-Sep-21 08:44 34.894101 -120.443563 261 263ft 0kts
18-Sep-21 08:45 34.894101 -120.443563 261 263ft 0kts
18-Sep-21 08:46 34.894101 -120.443563 261 263ft 0kts
18-Sep-21 08:48 34.894101 -120.443563 261 263ft 0kts
18-Sep-21 08:49 34.894101 -120.443563 261 263ft 0kts
18-Sep-21 08:50 34.894101 -120.443563 261 263ft 0kts
18-Sep-21 08:51 34.894101 -120.443563 261 263ft 0kts
18-Sep-21 08:52 34.894101 -120.443563 261 263ft 0kts
18-Sep-21 08:53 34.894101 -120.443563 261 263ft 0kts
18-Sep-21 08:54 34.894101 -120.443563 261 263ft 0kts
18-Sep-21 08:55 34.894101 -120.443563 261 263ft 0kts
18-Sep-21 08:56 34.894101 -120.443563 261 263ft 0kts
18-Sep-21 08:57 34.894101 -120.443563 261 263ft 0kts
18-Sep-21 08:58 34.894101 -120.443563 261 263ft 0kts
18-Sep-21 08:59 34.894101 -120.443563 261 263ft 0kts
18-Sep-21 09:00 34.894101 -120.443563 261 263ft 0kts
18-Sep-21 09:01 34.894101 -120.443563 261 263ft 0kts
18-Sep-21 09:02 34.894101 -120.443563 261 263ft 0kts
18-Sep-21 09:03 34.894101 -120.443563 261 263ft 0kts
18-Sep-21 09:04 34.894101 -120.443563 261 263ft 0kts
18-Sep-21 09:05 34.894101 -120.443563 261 263ft 0kts
18-Sep-21 09:06 34.894101 -120.443563 261 263ft 0kts
18-Sep-21 09:07 34.894101 -120.443563 261 263ft 0kts
18-Sep-21 09:08 34.894101 -120.443563 261 263ft 0kts
18-Sep-21 09:09 34.894101 -120.443563 261 263ft 0kts
18-Sep-21 09:10 34.894101 -120.443563 261 263ft 0kts
18-Sep-21 09:11 34.894101 -120.443563 261 263ft 0kts
18-Sep-21 09:11 34.894101 -120.443563 261 263ft 0kts
18-Sep-21 09:12 34.894101 -120.443563 261 263ft 0kts
18-Sep-21 09:14 34.893617 -120.445262 177 263ft 7kts
18-Sep-21 09:15 34.893449 -120.445256 177 264ft 0kts
18-Sep-21 09:16 34.892898 -120.445901 290 264ft 8kts
18-Sep-21 09:16 34.908299 -120.464408 317 775ft 148kts
18-Sep-21 09:17 34.937413 -120.447286 72 3084ft 161kts
18-Sep-21 09:18 34.934439 -120.390291 98 4554ft 169kts
18-Sep-21 09:19 34.937723 -120.335311 71 6058ft 165kts
18-Sep-21 09:20 34.954217 -120.284098 70 7483ft 162kts
18-Sep-21 09:21 34.972677 -120.228502 70 7668ft 187kts
18-Sep-21 09:22 34.992239 -120.169838 70 7645ft 186kts
18-Sep-21 09:23 35.012034 -120.110977 69 7599ft 188kts
18-Sep-21 09:24 35.031446 -120.051087 69 7545ft 188kts
18-Sep-21 09:25 35.051092 -119.992450 70 7557ft 186kts
18-Sep-21 09:26 35.070531 -119.933653 69 7556ft 188kts
18-Sep-21 09:27 35.090130 -119.874478 69 7557ft 189kts
18-Sep-21 09:28 35.111767 -119.816607 60 7545ft 186kts
18-Sep-21 09:29 35.139042 -119.762267 60 7558ft 188kts
18-Sep-21 09:30 35.165943 -119.707561 60 7560ft 188kts
18-Sep-21 09:31 35.192343 -119.652228 62 7551ft 187kts
18-Sep-21 09:32 35.217025 -119.596094 63 7560ft 187kts
18-Sep-21 09:33 35.241266 -119.539833 64 7560ft 187kts
18-Sep-21 09:34 35.265165 -119.482293 64 7368ft 195kts
18-Sep-21 09:35 35.287782 -119.427448 64 6519ft 166kts
18-Sep-21 09:36 35.308312 -119.377286 64 5248ft 163kts
18-Sep-21 09:37 35.328307 -119.327617 64 3846ft 161kts
18-Sep-21 09:38 35.347831 -119.277966 64 2449ft 162kts
18-Sep-21 09:39 35.366713 -119.229366 64 1601ft 146kts
18-Sep-21 09:40 35.387705 -119.190894 36 1552ft 132kts
18-Sep-21 09:41 35.415628 -119.162810 53 1557ft 129kts
18-Sep-21 09:42 35.434151 -119.125442 67 1509ft 125kts
18-Sep-21 09:43 35.437363 -119.085734 129 1584ft 128kts
18-Sep-21 09:44 35.414599 -119.056678 135 1468ft 115kts
18-Sep-21 09:45 35.421857 -119.041691 311 800ft 94kts
18-Sep-21 09:46 35.436060 -119.058054 30 495ft 11kts
18-Sep-21 09:47 35.435937 -119.056476 135 493ft 18kts
18-Sep-21 09:48 35.428483 -119.047438 112 479ft 22kts
18-Sep-21 09:49 35.428201 -119.045136 90 479ft 0kts

Navigation Log

Ident Type
Flight plan parsing failed, navigation log unavailable